Terminal Aerodrome Forecast
Issued by NWS Louisville, KY

Home | Current Version | Previous Version | Text Only | Print | Product List | Glossary On
Versions: 1 2 3 4 5 6 7 8 9 10 11 12 13 14 15 16 17
000
FTUS43 KLMK 252300
TAFBWG
TAF
KBWG 252320Z 2600/2624 26008KT 4SM -SHRA BR FEW009 SCT013 BKN040
      TEMPO 2600/2603 2SM -SHRA BR SCT009 BKN013
     FM260300 29009KT 3SM -RA BR BKN008
     FM260700 32012G18KT 5SM -RASN BR BKN008
     FM261200 31010KT 6SM BR BKN008
     FM261500 31010KT P6SM BKN012
     FM262100 29006KT P6SM SCT020 BKN050=

USA.gov is the U.S. government's official web portal to all federal, state and local government web resources and services.